Midlothian, Texas
Current Conditions -  °F | °C
As of 3:15 AM on Wednesday 28 Jan 2015 (Local Time) from KJWY Reporting Station
Clear Clear  
Wind Chill: 53°   Ceiling: Unl
Heat Index: 53°   Visibility: 10mi
Dew Point: 42°   Wind: 3mph
Humidity: 66%   Direction: 170°S
Pressure: 30.12"   Gusts: NA
Location:  32.48°N, 96.99°W
Report Text: KJWY 280915Z AUTO 17003KT 10SM CLR 12/06 A3012 RMK AO2 T01160055
Loading
Personal Weather Stations






























Interactive Weather Map New forecast layout! Learn more

10-Day Weather Forecast

Advertisements
Track Severe Weather on mobile